Time;durP1;ratioP1;P1;durP2;ratioP2;P2;SDS_P1;SDS_P2;PMS_P1;PMS_P2;Temp;Humidity;BMP_temperature;BMP_pressure;BME280_temperature;BME280_humidity;BME280_pressure;Samples;Min_cycle;Max_cycle;Signal;HPM_P1;HPM_P2
2023/08/06 00:01:50;;;;;;;2.70;2.40;;;21.10;79.40;;;;;;4937054;29;20498;-78
2023/08/06 00:04:16;;;;;;;2.38;2.08;;;21.10;79.70;;;;;;4937496;29;20478;-78
2023/08/06 00:06:42;;;;;;;4.60;2.13;;;21.10;79.60;;;;;;4937303;29;20483;-78
2023/08/06 00:09:08;;;;;;;6.03;2.13;;;21.10;79.80;;;;;;4938451;29;20087;-78
2023/08/06 00:11:34;;;;;;;5.07;2.05;;;21.10;79.80;;;;;;4938741;29;20031;-78
2023/08/06 00:13:59;;;;;;;3.95;1.95;;;21.10;79.70;;;;;;4938697;29;20036;-78
2023/08/06 00:16:25;;;;;;;3.00;2.47;;;21.10;79.60;;;;;;4936921;29;20023;-78
2023/08/06 00:18:51;;;;;;;4.45;1.83;;;21.10;80.00;;;;;;4936905;29;20482;-78
2023/08/06 00:21:17;;;;;;;7.07;2.40;;;21.10;80.00;;;;;;4938532;29;20031;-78
2023/08/06 00:23:43;;;;;;;4.32;2.50;;;21.10;80.00;;;;;;4938223;29;20016;-78
2023/08/06 00:26:09;;;;;;;4.57;1.90;;;21.10;80.00;;;;;;4936462;29;20027;-78
2023/08/06 00:28:34;;;;;;;3.22;1.92;;;21.10;80.00;;;;;;4980657;23;20048;-85
2023/08/06 00:31:00;;;;;;;4.03;2.00;;;21.10;80.00;;;;;;4936341;29;20032;-85
2023/08/06 00:33:26;;;;;;;6.30;2.20;;;21.00;80.30;;;;;;4937409;29;20450;-84
2023/08/06 00:35:52;;;;;;;4.57;2.28;;;21.10;80.30;;;;;;4936123;29;20051;-84
2023/08/06 00:38:17;;;;;;;3.45;2.03;;;21.00;80.50;;;;;;4937883;29;20079;-85
2023/08/06 00:40:43;;;;;;;2.95;2.28;;;21.10;80.60;;;;;;4936212;29;20048;-85
2023/08/06 00:43:10;;;;;;;3.58;2.20;;;21.00;80.60;;;;;;4936221;29;20028;-84
2023/08/06 00:45:38;;;;;;;5.27;2.03;;;21.10;81.00;;;;;;4935603;29;20100;-84
2023/08/06 00:48:06;;;;;;;6.40;2.75;;;21.10;81.10;;;;;;4935704;29;20044;-84
2023/08/06 00:50:32;;;;;;;2.97;2.33;;;21.00;81.30;;;;;;4935924;29;20039;-84
2023/08/06 00:52:58;;;;;;;4.60;2.50;;;21.00;81.30;;;;;;4936852;29;20036;-84
2023/08/06 00:55:24;;;;;;;8.93;3.90;;;21.00;81.60;;;;;;4936304;29;20391;-84
2023/08/06 00:57:52;;;;;;;4.03;3.08;;;20.90;81.70;;;;;;4936088;29;20035;-86
2023/08/06 01:00:19;;;;;;;4.60;3.10;;;21.00;82.20;;;;;;4935711;29;20131;-85
2023/08/06 01:02:46;;;;;;;5.47;3.20;;;20.90;82.10;;;;;;4935694;29;20042;-85
2023/08/06 01:05:12;;;;;;;6.60;3.70;;;21.00;82.10;;;;;;4937883;29;20495;-85
2023/08/06 01:07:49;;;;;;;5.05;3.33;;;21.00;82.60;;;;;;4935872;29;20108;-84
2023/08/06 01:10:33;;;;;;;3.88;3.30;;;21.00;82.00;;;;;;4935678;29;20513;-86
2023/08/06 01:13:18;;;;;;;5.72;3.88;;;21.00;82.70;;;;;;4935626;29;20422;-84
2023/08/06 01:15:49;;;;;;;4.15;3.70;;;21.00;82.00;;;;;;4935256;29;20518;-84
2023/08/06 01:18:15;;;;;;;6.68;3.83;;;21.00;82.80;;;;;;4935797;29;20032;-84
2023/08/06 01:20:41;;;;;;;7.97;3.67;;;21.00;82.80;;;;;;4936538;29;20577;-84
2023/08/06 01:23:07;;;;;;;6.03;3.55;;;21.00;82.80;;;;;;4935514;29;20028;-86
2023/08/06 01:25:57;;;;;;;4.65;3.72;;;21.10;82.70;;;;;;4919639;29;20032;-86
2023/08/06 01:28:33;;;;;;;5.90;4.10;;;21.10;81.00;;;;;;4937021;29;20032;-84
2023/08/06 01:31:02;;;;;;;5.45;3.75;;;21.10;82.90;;;;;;4935209;29;20042;-84
2023/08/06 01:33:30;;;;;;;6.53;3.95;;;21.10;83.10;;;;;;4935621;29;20094;-84
2023/08/06 01:35:57;;;;;;;5.10;3.40;;;21.00;83.20;;;;;;4934990;29;20494;-84
2023/08/06 01:38:24;;;;;;;5.90;3.83;;;21.00;84.00;;;;;;4936522;29;20042;-84
2023/08/06 01:40:50;;;;;;;;;;;21.00;83.90;;;;;;4935897;29;20083;-84
2023/08/06 01:43:16;;;;;;;8.07;4.82;;;20.90;82.00;;;;;;4935474;29;19906;-85
2023/08/06 01:45:42;;;;;;;5.85;4.45;;;20.90;84.10;;;;;;4935903;29;20028;-85
2023/08/06 01:48:07;;;;;;;5.78;3.67;;;20.90;84.50;;;;;;4937082;29;20059;-84
2023/08/06 01:50:33;;;;;;;9.55;3.92;;;20.90;84.80;;;;;;4936969;29;20039;-84
2023/08/06 01:52:59;;;;;;;7.00;4.28;;;20.90;85.10;;;;;;4935490;29;20383;-84
2023/08/06 01:55:26;;;;;;;4.32;3.92;;;20.90;85.00;;;;;;4919616;29;20070;-84
2023/08/06 01:57:52;;;;;;;5.53;3.88;;;20.90;85.40;;;;;;4920151;29;20055;-86
2023/08/06 02:00:18;;;;;;;6.35;4.13;;;20.90;85.20;;;;;;4920140;29;20511;-84
2023/08/06 02:02:43;;;;;;;9.38;5.32;;;20.90;85.30;;;;;;4935305;29;20058;-84
2023/08/06 02:05:09;;;;;;;7.65;4.57;;;20.80;85.70;;;;;;4937133;29;20494;-84
2023/08/06 02:07:35;;;;;;;5.28;4.57;;;20.80;85.90;;;;;;4938974;29;20035;-85
2023/08/06 02:10:02;;;;;;;7.30;5.10;;;20.80;85.80;;;;;;4939571;29;20032;-85
2023/08/06 02:12:28;;;;;;;9.80;6.07;;;20.80;86.30;;;;;;4938713;29;20039;-86
2023/08/06 02:14:54;;;;;;;4.82;4.43;;;20.70;85.90;;;;;;4923047;29;20027;-86
2023/08/06 02:17:20;;;;;;;9.18;4.72;;;20.70;86.30;;;;;;4940194;29;20038;-85
2023/08/06 02:19:46;;;;;;;9.32;4.72;;;20.70;86.90;;;;;;4939191;29;20031;-84
2023/08/06 02:22:12;;;;;;;6.20;4.43;;;20.70;86.90;;;;;;4940217;29;20032;-84
2023/08/06 02:24:37;;;;;;;6.95;4.40;;;20.60;87.50;;;;;;4923480;29;20028;-84
2023/08/06 02:27:03;;;;;;;7.10;4.40;;;20.60;87.80;;;;;;4940686;29;20040;-85
2023/08/06 02:29:29;;;;;;;6.50;4.27;;;20.50;87.80;;;;;;4938964;29;20104;-84
2023/08/06 02:31:55;;;;;;;6.82;4.53;;;20.40;87.80;;;;;;4922824;29;20593;-84
2023/08/06 02:34:21;;;;;;;5.30;4.72;;;20.40;88.10;;;;;;4940542;29;20078;-84
2023/08/06 02:36:46;;;;;;;10.02;6.18;;;20.40;88.40;;;;;;4938705;29;20032;-87
2023/08/06 02:39:12;;;;;;;8.23;5.20;;;20.40;88.60;;;;;;4940137;29;20024;-84
2023/08/06 02:41:38;;;;;;;7.05;5.50;;;20.40;88.60;;;;;;4956491;29;20492;-84
2023/08/06 02:44:04;;;;;;;6.65;5.15;;;20.40;88.50;;;;;;4956437;29;20584;-84
2023/08/06 02:46:30;;;;;;;6.43;5.35;;;20.50;88.60;;;;;;4957674;28;20812;-84
2023/08/06 02:48:56;;;;;;;9.27;4.63;;;20.50;87.90;;;;;;4957575;28;20031;-85
2023/08/06 02:51:21;;;;;;;5.38;4.72;;;20.50;88.00;;;;;;4957702;28;20031;-84
2023/08/06 02:53:49;;;;;;;6.47;5.57;;;20.40;88.00;;;;;;4941519;29;20383;-84
2023/08/06 02:56:16;;;;;;;5.15;4.35;;;20.40;87.80;;;;;;4957542;29;20035;-84
2023/08/06 02:58:53;;;;;;;9.20;5.47;;;20.40;88.40;;;;;;4958955;28;20494;-84
2023/08/06 03:01:32;;;;;;;15.88;5.90;;;20.40;89.40;;;;;;4942311;29;20457;-84
2023/08/06 03:04:05;;;;;;;6.63;5.60;;;20.30;89.30;;;;;;4927012;29;20111;-83
2023/08/06 03:06:35;;;;;;;8.05;4.85;;;20.30;89.50;;;;;;4919338;29;20027;-86
2023/08/06 03:09:02;;;;;;;12.50;5.88;;;20.30;90.10;;;;;;4905642;29;20027;-84
2023/08/06 03:11:28;;;;;;;8.45;5.50;;;20.20;90.40;;;;;;4919095;29;20055;-84
2023/08/06 03:14:00;;;;;;;8.80;5.18;;;20.20;90.70;;;;;;4919746;29;20503;-84
2023/08/06 03:16:26;;;;;;;7.10;5.65;;;20.20;90.70;;;;;;4923119;29;20048;-84
2023/08/06 03:18:53;;;;;;;7.55;5.97;;;20.20;90.80;;;;;;4937313;29;20118;-84
2023/08/06 03:21:20;;;;;;;6.70;5.53;;;20.20;90.80;;;;;;4935937;29;20031;-84
2023/08/06 03:23:49;;;;;;;6.27;4.97;;;20.20;91.00;;;;;;4930414;29;20051;-85
2023/08/06 03:26:17;;;;;;;9.35;6.35;;;20.00;91.10;;;;;;4934915;29;20640;-84
2023/08/06 03:28:44;;;;;;;8.00;5.15;;;20.00;91.50;;;;;;4918328;29;20043;-85
2023/08/06 03:31:10;;;;;;;5.90;5.35;;;20.00;91.40;;;;;;4908776;29;20438;-84
2023/08/06 03:33:42;;;;;;;11.55;5.57;;;20.00;91.40;;;;;;4932592;29;20146;-84
2023/08/06 03:36:13;;;;;;;10.32;5.38;;;20.00;91.40;;;;;;4921217;29;20064;-84
2023/08/06 03:38:39;;;;;;;11.40;5.18;;;20.00;91.40;;;;;;4929830;29;20079;-85
2023/08/06 03:41:07;;;;;;;6.32;5.20;;;20.00;91.30;;;;;;4941215;29;20028;-84
2023/08/06 03:43:33;;;;;;;6.45;5.40;;;20.00;91.70;;;;;;4934332;29;20399;-85
2023/08/06 03:45:59;;;;;;;11.52;5.45;;;19.90;91.80;;;;;;4928437;29;20037;-84
2023/08/06 03:48:25;;;;;;;7.47;5.13;;;19.90;91.60;;;;;;4935321;29;20035;-84
2023/08/06 03:50:51;;;;;;;14.40;5.75;;;20.00;91.60;;;;;;4933950;29;20023;-83
2023/08/06 03:53:18;;;;;;;7.50;5.18;;;20.00;91.60;;;;;;4919669;29;20028;-88
2023/08/06 03:55:44;;;;;;;8.75;5.20;;;20.00;91.40;;;;;;4917362;29;20036;-85
2023/08/06 03:58:10;;;;;;;11.35;6.55;;;20.00;91.70;;;;;;4935472;29;20111;-86
2023/08/06 04:00:36;;;;;;;8.38;5.18;;;19.90;91.90;;;;;;4934284;29;20097;-84
2023/08/06 04:03:02;;;;;;;8.63;5.78;;;19.80;91.90;;;;;;4945736;28;20097;-84
2023/08/06 04:05:32;;;;;;;6.47;5.75;;;19.90;92.00;;;;;;4919293;29;20038;-87
2023/08/06 04:07:59;;;;;;;7.57;5.72;;;19.90;91.90;;;;;;4932728;29;20024;-85
2023/08/06 04:10:25;;;;;;;5.85;5.28;;;19.90;92.30;;;;;;4927248;29;20027;-85
2023/08/06 04:12:51;;;;;;;7.00;5.22;;;19.80;92.20;;;;;;4924683;29;20035;-86
2023/08/06 04:15:17;;;;;;;6.38;5.25;;;19.80;92.20;;;;;;4925789;29;20493;-87
2023/08/06 04:17:43;;;;;;;6.40;5.28;;;19.80;92.20;;;;;;4940011;28;20114;-86
2023/08/06 04:20:09;;;;;;;8.07;5.47;;;19.80;92.20;;;;;;4903781;29;20390;-86
2023/08/06 04:22:34;;;;;;;9.37;6.07;;;19.80;92.30;;;;;;4939416;29;20036;-85
2023/08/06 04:25:00;;;;;;;10.18;4.97;;;19.80;92.60;;;;;;4937600;29;20126;-84
2023/08/06 04:27:26;;;;;;;9.25;5.20;;;19.70;92.30;;;;;;4937393;29;20040;-84
2023/08/06 04:29:52;;;;;;;10.07;5.82;;;19.70;92.40;;;;;;4937898;29;20039;-84
2023/08/06 04:32:19;;;;;;;6.20;5.22;;;19.70;92.40;;;;;;4920826;29;20046;-85
2023/08/06 04:34:48;;;;;;;9.52;6.35;;;19.70;92.60;;;;;;4918804;29;20087;-85
2023/08/06 04:37:15;;;;;;;9.77;6.80;;;19.70;92.70;;;;;;4918472;29;20036;-87
2023/08/06 04:39:40;;;;;;;7.05;6.30;;;19.70;92.60;;;;;;4924950;29;20031;-84
2023/08/06 04:42:06;;;;;;;11.23;6.32;;;19.50;93.20;;;;;;4933313;29;20028;-85
2023/08/06 04:44:32;;;;;;;8.48;6.40;;;19.40;93.30;;;;;;4902985;29;20028;-85
2023/08/06 04:46:58;;;;;;;8.15;6.15;;;19.40;93.20;;;;;;4928127;29;20040;-85
2023/08/06 04:49:25;;;;;;;7.32;6.53;;;19.50;93.00;;;;;;4942017;29;20513;-84
2023/08/06 04:51:51;;;;;;;7.45;6.47;;;19.40;93.00;;;;;;4923960;29;20032;-84
2023/08/06 04:54:16;;;;;;;7.30;5.93;;;19.40;93.30;;;;;;4925099;29;20119;-84
2023/08/06 04:56:42;;;;;;;6.28;5.60;;;19.50;93.40;;;;;;4933773;29;20036;-84
2023/08/06 04:59:08;;;;;;;7.80;6.63;;;19.40;93.30;;;;;;4921013;29;20087;-84
2023/08/06 05:01:34;;;;;;;10.95;6.57;;;19.50;93.30;;;;;;4925470;29;20032;-84
2023/08/06 05:04:00;;;;;;;7.00;6.03;;;19.50;93.40;;;;;;4933477;29;20063;-86
2023/08/06 05:06:25;;;;;;;9.43;6.38;;;19.60;93.30;;;;;;4936235;29;20569;-87
2023/08/06 05:08:51;;;;;;;10.80;6.82;;;19.60;93.80;;;;;;4933010;29;20059;-84
2023/08/06 05:11:17;;;;;;;8.13;7.13;;;19.60;93.80;;;;;;4943029;29;20043;-84
2023/08/06 05:13:43;;;;;;;8.25;6.57;;;19.60;93.70;;;;;;4933324;29;20504;-84
2023/08/06 05:16:09;;;;;;;7.10;6.40;;;19.60;93.40;;;;;;4918333;29;20035;-84
2023/08/06 05:18:34;;;;;;;8.18;6.60;;;19.70;93.30;;;;;;4905048;29;20492;-84
2023/08/06 05:21:01;;;;;;;;;;;19.60;93.50;;;;;;4928187;29;20059;-85
2023/08/06 05:23:27;;;;;;;8.48;6.38;;;19.60;93.40;;;;;;4918142;29;20289;-84
2023/08/06 05:25:53;;;;;;;8.70;6.40;;;19.60;93.60;;;;;;4905216;29;20034;-84
2023/08/06 05:28:19;;;;;;;12.60;7.60;;;19.60;93.70;;;;;;4934488;29;20116;-85
2023/08/06 05:30:44;;;;;;;7.25;6.30;;;19.60;94.00;;;;;;4918714;29;20051;-84
2023/08/06 05:33:10;;;;;;;7.03;6.25;;;19.60;94.10;;;;;;4913072;29;20038;-85
2023/08/06 05:35:36;;;;;;;6.72;6.07;;;19.70;94.10;;;;;;4953602;28;20055;-87
2023/08/06 05:38:02;;;;;;;7.57;6.85;;;19.70;94.40;;;;;;4938080;29;20140;-87
2023/08/06 05:40:28;;;;;;;7.57;6.63;;;19.70;94.30;;;;;;4944357;28;20063;-85
2023/08/06 05:42:55;;;;;;;8.55;7.68;;;19.70;94.20;;;;;;4935545;29;20028;-85
2023/08/06 05:45:20;;;;;;;;;;;19.70;94.20;;;;;;4922242;29;20111;-86
2023/08/06 05:47:48;;;;;;;7.43;6.45;;;19.80;93.70;;;;;;4928509;29;20010;-87
2023/08/06 05:50:14;;;;;;;8.65;6.88;;;19.80;94.20;;;;;;4934423;29;20042;-85
2023/08/06 05:52:40;;;;;;;6.78;6.07;;;19.80;93.80;;;;;;4941480;29;20040;-85
2023/08/06 05:55:06;;;;;;;8.45;7.00;;;19.90;93.90;;;;;;4926337;29;20035;-84
2023/08/06 05:57:32;;;;;;;7.80;7.00;;;19.90;93.70;;;;;;4933971;29;20036;-84
2023/08/06 05:59:57;;;;;;;12.65;6.65;;;19.90;93.70;;;;;;4919391;29;20036;-81
2023/08/06 06:02:23;;;;;;;7.28;6.30;;;20.00;93.60;;;;;;4928398;29;20486;-82
2023/08/06 06:04:49;;;;;;;7.35;6.25;;;20.00;93.50;;;;;;4931577;29;20239;-81
2023/08/06 06:07:15;;;;;;;10.57;7.15;;;20.00;93.60;;;;;;4901547;29;20033;-82
2023/08/06 06:09:41;;;;;;;8.13;6.85;;;20.10;93.10;;;;;;4930028;29;20032;-85
2023/08/06 06:12:07;;;;;;;9.15;6.13;;;20.10;93.00;;;;;;4934226;29;20487;-85
2023/08/06 06:14:32;;;;;;;8.32;5.97;;;20.10;92.90;;;;;;4923294;29;20039;-84
2023/08/06 06:17:00;;;;;;;7.25;5.53;;;20.20;92.50;;;;;;4936993;29;20059;-84
2023/08/06 06:19:26;;;;;;;7.03;6.13;;;20.30;92.50;;;;;;4933161;29;20080;-85
2023/08/06 06:21:52;;;;;;;10.40;6.03;;;20.40;92.40;;;;;;4928962;29;20032;-84
2023/08/06 06:24:18;;;;;;;7.35;5.50;;;20.50;92.40;;;;;;4943339;29;20036;-84
2023/08/06 06:26:44;;;;;;;6.78;5.63;;;20.60;92.00;;;;;;4936322;29;20117;-85
2023/08/06 06:29:10;;;;;;;9.32;5.47;;;20.60;91.60;;;;;;4997005;23;20047;-78
2023/08/06 06:31:36;;;;;;;6.93;5.20;;;20.70;91.20;;;;;;4938974;29;20051;-79
2023/08/06 06:34:01;;;;;;;5.38;4.63;;;20.80;91.40;;;;;;4941620;29;20027;-78
2023/08/06 06:36:27;;;;;;;8.60;4.57;;;20.90;90.90;;;;;;4936964;29;20042;-78
2023/08/06 06:38:53;;;;;;;5.55;3.33;;;20.90;89.20;;;;;;4941883;29;20079;-78
2023/08/06 06:41:19;;;;;;;8.70;3.88;;;21.00;88.60;;;;;;4934864;29;20032;-78
2023/08/06 06:43:45;;;;;;;6.13;3.88;;;21.10;87.20;;;;;;4922338;29;20080;-78
2023/08/06 06:46:10;;;;;;;4.45;3.40;;;21.10;83.90;;;;;;4921565;29;20056;-78
2023/08/06 06:48:36;;;;;;;3.63;3.25;;;21.20;83.90;;;;;;4923767;29;20059;-78
2023/08/06 06:51:02;;;;;;;5.22;4.07;;;21.20;84.50;;;;;;4922441;29;20460;-78
2023/08/06 06:53:28;;;;;;;5.18;2.95;;;21.40;84.90;;;;;;4944497;29;20047;-78
2023/08/06 06:55:55;;;;;;;8.15;3.40;;;21.40;83.70;;;;;;4945649;29;20463;-78
2023/08/06 06:58:21;;;;;;;3.78;3.00;;;21.50;82.10;;;;;;4941776;29;20034;-78
2023/08/06 07:00:48;;;;;;;5.78;3.08;;;21.50;81.10;;;;;;4942896;29;20027;-79
2023/08/06 07:03:15;;;;;;;3.58;2.90;;;21.50;82.10;;;;;;4945077;29;20091;-78
2023/08/06 07:05:41;;;;;;;7.00;3.47;;;21.60;82.10;;;;;;4945329;29;20031;-78
2023/08/06 07:08:07;;;;;;;6.85;3.47;;;21.70;81.50;;;;;;4945147;29;20066;-78
2023/08/06 07:10:33;;;;;;;4.53;2.90;;;21.70;81.70;;;;;;4944277;29;20066;-78
2023/08/06 07:12:59;;;;;;;5.07;3.55;;;21.70;80.60;;;;;;4943828;29;20036;-79
2023/08/06 07:15:25;;;;;;;7.38;3.38;;;21.80;81.40;;;;;;4945212;29;20024;-78
2023/08/06 07:17:50;;;;;;;4.72;3.20;;;21.80;81.20;;;;;;4940740;29;20058;-78
2023/08/06 07:20:16;;;;;;;5.85;3.28;;;21.70;81.30;;;;;;4945735;29;20051;-79
2023/08/06 07:22:42;;;;;;;7.57;3.13;;;21.70;81.40;;;;;;4946211;29;20024;-77
2023/08/06 07:25:08;;;;;;;5.70;2.93;;;21.70;78.60;;;;;;4944061;29;20032;-78
2023/08/06 07:27:34;;;;;;;4.25;2.70;;;21.70;80.10;;;;;;4943976;29;20233;-77
2023/08/06 07:30:00;;;;;;;6.30;2.72;;;21.80;80.80;;;;;;4943688;29;20159;-77
2023/08/06 07:32:27;;;;;;;4.60;3.33;;;21.90;80.60;;;;;;4942149;29;20023;-77
2023/08/06 07:34:59;;;;;;;9.07;2.83;;;21.90;80.30;;;;;;4942469;29;20118;-77
2023/08/06 07:37:25;;;;;;;4.65;3.05;;;21.90;79.00;;;;;;4937801;29;20056;-77
2023/08/06 07:39:51;;;;;;;4.25;2.10;;;21.90;79.60;;;;;;4941828;29;20039;-78
2023/08/06 07:42:16;;;;;;;7.45;2.35;;;22.00;79.60;;;;;;4942340;29;20087;-77
2023/08/06 07:44:42;;;;;;;4.32;2.08;;;22.10;78.70;;;;;;4938686;29;20044;-77
2023/08/06 07:47:08;;;;;;;4.22;2.25;;;22.10;78.20;;;;;;4943235;29;20112;-77
2023/08/06 07:49:34;;;;;;;6.63;2.40;;;22.20;78.60;;;;;;4924843;29;20039;-77
2023/08/06 07:51:59;;;;;;;15.10;2.67;;;22.30;77.50;;;;;;4941771;29;20478;-77
2023/08/06 07:54:25;;;;;;;3.10;1.70;;;22.40;76.90;;;;;;4942021;29;20027;-77
2023/08/06 07:56:51;;;;;;;3.28;1.65;;;22.50;76.30;;;;;;4956903;29;20035;-77
2023/08/06 07:59:17;;;;;;;2.42;1.50;;;22.50;75.20;;;;;;4941782;29;20090;-77
2023/08/06 08:01:42;;;;;;;4.30;1.40;;;22.60;75.40;;;;;;4940055;29;20035;-77
2023/08/06 08:04:08;;;;;;;6.47;1.60;;;22.70;74.60;;;;;;4927426;29;20039;-77
2023/08/06 08:06:34;;;;;;;3.27;1.20;;;22.80;73.30;;;;;;4922948;29;20036;-77
2023/08/06 08:09:00;;;;;;;3.10;1.67;;;22.80;72.20;;;;;;4923827;29;20028;-77
2023/08/06 08:11:26;;;;;;;5.68;1.63;;;23.00;70.80;;;;;;4923815;29;20031;-77
2023/08/06 08:13:52;;;;;;;3.92;1.73;;;23.00;71.50;;;;;;4938254;29;20039;-77
2023/08/06 08:16:18;;;;;;;4.93;1.33;;;23.10;71.80;;;;;;4940822;29;20032;-78
2023/08/06 08:18:43;;;;;;;2.10;0.80;;;23.20;70.40;;;;;;4941961;29;20095;-77
2023/08/06 08:21:09;;;;;;;2.28;1.10;;;23.30;69.40;;;;;;4945760;29;20028;-78
2023/08/06 08:23:35;;;;;;;5.77;1.40;;;23.40;66.80;;;;;;4927930;29;20067;-78
2023/08/06 08:26:02;;;;;;;2.97;1.58;;;23.50;65.80;;;;;;4947160;29;20024;-78
2023/08/06 08:28:28;;;;;;;2.83;0.80;;;23.60;65.90;;;;;;4942981;29;20513;-78
2023/08/06 08:30:53;;;;;;;2.05;1.33;;;23.60;64.40;;;;;;4943030;29;20036;-77
2023/08/06 08:33:20;;;;;;;6.80;0.80;;;23.70;63.20;;;;;;4945679;29;20038;-77
2023/08/06 08:35:46;;;;;;;12.77;1.17;;;23.70;63.90;;;;;;4942805;29;20090;-78
2023/08/06 08:38:12;;;;;;;4.05;0.90;;;23.90;62.70;;;;;;4945313;29;20465;-77
2023/08/06 08:40:47;;;;;;;4.70;0.93;;;23.90;61.10;;;;;;4945822;29;20032;-78
2023/08/06 08:43:14;;;;;;;0.90;0.70;;;24.00;61.00;;;;;;4946251;29;20091;-78
2023/08/06 08:45:44;;;;;;;2.17;0.90;;;24.10;60.80;;;;;;4943910;29;20042;-78
2023/08/06 08:48:14;;;;;;;2.22;0.70;;;24.10;61.10;;;;;;4943612;29;20152;-78
2023/08/06 08:50:41;;;;;;;2.13;0.75;;;24.10;60.20;;;;;;4945427;29;20027;-78
2023/08/06 08:53:08;;;;;;;2.50;1.58;;;24.30;60.90;;;;;;4943774;29;20032;-78
2023/08/06 08:55:34;;;;;;;3.53;0.80;;;24.30;60.10;;;;;;4944448;29;20042;-78
2023/08/06 08:58:00;;;;;;;5.30;1.27;;;24.40;60.70;;;;;;4943880;29;20075;-78
2023/08/06 09:00:28;;;;;;;1.83;0.65;;;24.50;59.00;;;;;;4945721;29;20442;-78
2023/08/06 09:02:54;;;;;;;4.05;0.90;;;24.50;60.10;;;;;;4944932;29;20042;-78
2023/08/06 09:05:22;;;;;;;1.20;0.70;;;24.60;60.80;;;;;;4926511;29;20119;-78
2023/08/06 09:07:49;;;;;;;2.03;0.52;;;24.70;60.60;;;;;;4943276;29;20495;-78
2023/08/06 09:10:17;;;;;;;4.80;1.73;;;24.70;59.90;;;;;;4946200;29;20042;-78
2023/08/06 09:12:44;;;;;;;6.90;1.10;;;24.90;59.50;;;;;;4946328;29;20028;-77
2023/08/06 09:15:10;;;;;;;5.05;1.40;;;25.00;59.70;;;;;;4944905;29;20151;-78
2023/08/06 09:17:37;;;;;;;2.47;0.87;;;25.00;57.10;;;;;;4943262;29;20523;-78
2023/08/06 09:20:15;;;;;;;1.83;1.10;;;25.00;57.00;;;;;;4944488;29;20054;-78
2023/08/06 09:22:41;;;;;;;3.30;0.95;;;25.00;56.20;;;;;;4943363;29;20040;-77
2023/08/06 09:25:11;;;;;;;2.73;1.07;;;25.00;55.10;;;;;;4943973;29;20028;-77
2023/08/06 09:27:37;;;;;;;1.30;0.65;;;25.00;55.70;;;;;;4943834;29;20883;-78
2023/08/06 09:30:05;;;;;;;3.13;0.88;;;25.10;55.10;;;;;;4946145;29;20051;-78
2023/08/06 09:32:47;;;;;;;4.85;2.38;;;25.10;56.90;;;;;;4943788;29;20054;-78
2023/08/06 09:35:17;;;;;;;2.25;1.00;;;25.20;55.70;;;;;;4945148;29;20491;-77
2023/08/06 09:37:43;;;;;;;2.50;0.90;;;25.30;55.90;;;;;;4945652;29;20035;-78
2023/08/06 09:40:30;;;;;;;1.33;0.73;;;25.20;56.20;;;;;;4943474;29;20031;-78
2023/08/06 09:42:57;;;;;;;3.35;1.75;;;25.40;56.40;;;;;;4945851;29;20765;-78
2023/08/06 09:45:30;;;;;;;1.65;1.00;;;25.30;55.20;;;;;;4946117;29;20118;-78
2023/08/06 09:47:57;;;;;;;1.00;0.90;;;25.30;57.30;;;;;;4945956;29;20047;-78
2023/08/06 09:50:23;;;;;;;;;;;25.40;57.50;;;;;;4945449;29;20566;-78
2023/08/06 09:52:51;;;;;;;2.30;0.88;;;25.50;56.60;;;;;;4945207;29;19911;-78
2023/08/06 09:55:18;;;;;;;1.50;0.75;;;25.50;57.60;;;;;;4945305;29;20036;-78
2023/08/06 09:57:44;;;;;;;2.88;1.10;;;25.60;56.30;;;;;;4944432;29;20094;-78
2023/08/06 10:00:11;;;;;;;3.17;1.23;;;25.60;56.30;;;;;;4946092;29;20042;-78
2023/08/06 10:02:40;;;;;;;2.55;1.25;;;25.70;56.20;;;;;;4946316;29;20059;-78
2023/08/06 10:05:07;;;;;;;;;;;25.70;56.50;;;;;;4948736;29;20042;-78
2023/08/06 10:07:34;;;;;;;3.65;1.27;;;25.80;55.60;;;;;;4948561;29;19914;-78
2023/08/06 10:10:00;;;;;;;1.83;1.08;;;25.90;56.80;;;;;;4947682;29;20080;-78
2023/08/06 10:12:30;;;;;;;2.88;0.95;;;25.90;56.80;;;;;;4947440;29;20059;-78
2023/08/06 10:14:59;;;;;;;3.25;1.00;;;26.00;55.00;;;;;;4947047;29;20035;-78
2023/08/06 10:17:26;;;;;;;3.08;1.63;;;26.10;55.00;;;;;;4946649;29;20055;-80
2023/08/06 10:19:55;;;;;;;3.13;1.23;;;26.20;54.80;;;;;;4945654;29;20059;-79
2023/08/06 10:22:21;;;;;;;4.90;1.02;;;26.30;55.00;;;;;;4936447;29;20036;-80
2023/08/06 10:24:57;;;;;;;4.00;1.10;;;26.50;54.20;;;;;;4938885;29;20114;-83
2023/08/06 10:27:33;;;;;;;3.20;0.70;;;26.60;50.30;;;;;;4943613;29;20595;-82
2023/08/06 10:30:21;;;;;;;1.30;0.82;;;26.70;49.70;;;;;;4925206;29;20298;-83
2023/08/06 10:32:52;;;;;;;2.20;0.70;;;26.80;47.50;;;;;;4910626;29;20487;-82
2023/08/06 10:35:49;;;;;;;1.63;0.70;;;27.00;46.90;;;;;;4938667;29;20047;-82
2023/08/06 10:38:31;;;;;;;1.23;0.93;;;27.20;44.80;;;;;;4926328;29;20414;-82
2023/08/06 10:40:57;;;;;;;3.45;1.10;;;27.30;45.40;;;;;;4943192;29;20037;-84
2023/08/06 10:43:32;;;;;;;1.33;0.70;;;27.30;47.10;;;;;;4942773;29;20502;-78
2023/08/06 10:45:59;;;;;;;2.22;1.10;;;27.50;47.80;;;;;;4946666;29;20031;-79
2023/08/06 10:48:40;;;;;;;1.20;0.70;;;27.60;46.40;;;;;;4963858;28;20040;-78
2023/08/06 10:51:14;;;;;;;2.55;0.77;;;27.70;44.80;;;;;;4947453;29;20348;-79
2023/08/06 10:53:49;;;;;;;2.33;0.88;;;27.70;45.80;;;;;;4948016;29;20103;-79
2023/08/06 10:56:22;;;;;;;2.20;0.80;;;27.80;44.30;;;;;;4949589;29;20042;-79
2023/08/06 10:58:49;;;;;;;1.17;0.95;;;27.90;43.10;;;;;;4949177;29;20052;-79
2023/08/06 11:01:15;;;;;;;2.35;1.35;;;27.90;42.40;;;;;;4950949;29;20051;-79
2023/08/06 11:03:43;;;;;;;3.25;0.82;;;28.00;43.90;;;;;;4950328;29;20023;-80
2023/08/06 11:06:10;;;;;;;6.75;1.00;;;28.10;43.40;;;;;;4950292;29;20024;-79
2023/08/06 11:08:38;;;;;;;3.60;0.88;;;28.20;43.50;;;;;;4950155;29;20056;-79
2023/08/06 11:11:17;;;;;;;0.60;0.60;;;28.20;42.80;;;;;;4949539;29;20023;-79
2023/08/06 11:13:48;;;;;;;0.98;0.68;;;28.30;42.50;;;;;;4951055;29;20047;-79
2023/08/06 11:16:26;;;;;;;5.57;1.05;;;28.40;43.20;;;;;;4965059;29;20032;-79
2023/08/06 11:18:54;;;;;;;1.25;0.60;;;28.40;42.60;;;;;;4950686;29;20418;-79
2023/08/06 11:21:24;;;;;;;2.13;1.05;;;28.50;39.10;;;;;;4949438;29;20451;-79
2023/08/06 11:23:51;;;;;;;0.80;0.80;;;28.60;38.80;;;;;;4965448;29;20032;-79
2023/08/06 11:26:20;;;;;;;3.20;1.13;;;28.70;38.80;;;;;;4933756;29;20514;-80
2023/08/06 11:28:46;;;;;;;5.35;0.90;;;28.80;38.30;;;;;;4951516;29;20032;-79
2023/08/06 11:31:23;;;;;;;5.20;0.87;;;28.80;37.80;;;;;;4949822;29;20053;-79
2023/08/06 11:33:53;;;;;;;3.25;1.35;;;28.90;36.50;;;;;;4964739;29;20054;-80
2023/08/06 11:36:40;;;;;;;2.65;0.77;;;28.90;35.10;;;;;;4966875;28;20032;-80
2023/08/06 11:39:06;;;;;;;0.67;0.67;;;29.00;35.80;;;;;;4950405;29;20119;-80
2023/08/06 11:41:32;;;;;;;2.13;0.70;;;29.10;36.50;;;;;;4951494;29;20028;-80
2023/08/06 11:43:59;;;;;;;1.08;0.65;;;29.20;36.20;;;;;;4952056;29;20031;-80
2023/08/06 11:46:26;;;;;;;2.00;0.75;;;29.30;33.90;;;;;;4950518;29;20443;-79
2023/08/06 11:48:56;;;;;;;0.77;0.68;;;29.30;33.90;;;;;;4952205;29;20104;-80
2023/08/06 11:51:24;;;;;;;2.72;1.00;;;29.30;34.80;;;;;;4951930;29;20031;-80
2023/08/06 11:53:51;;;;;;;2.58;1.00;;;29.40;36.00;;;;;;4952495;29;20016;-80
2023/08/06 11:56:17;;;;;;;2.33;0.90;;;29.50;35.70;;;;;;4953244;29;20031;-80
2023/08/06 11:58:43;;;;;;;0.68;0.68;;;29.60;37.80;;;;;;4952886;29;20023;-80
2023/08/06 12:01:09;;;;;;;2.57;0.90;;;29.70;37.00;;;;;;4951065;29;20032;-79
2023/08/06 12:03:40;;;;;;;2.93;0.80;;;29.70;34.80;;;;;;4936184;29;20270;-80
2023/08/06 12:06:07;;;;;;;1.27;0.80;;;29.60;32.80;;;;;;4967148;29;20028;-80
2023/08/06 12:08:33;;;;;;;0.77;0.70;;;29.70;34.50;;;;;;4952185;29;20028;-79
2023/08/06 12:10:59;;;;;;;1.60;0.88;;;29.60;33.70;;;;;;4950533;29;20028;-80
2023/08/06 12:13:25;;;;;;;1.48;0.70;;;29.70;34.10;;;;;;4952750;29;20032;-80
2023/08/06 12:15:53;;;;;;;2.10;0.53;;;29.80;34.60;;;;;;4951471;29;20027;-79
2023/08/06 12:18:19;;;;;;;1.55;0.68;;;29.80;32.70;;;;;;4950685;29;20275;-80
2023/08/06 12:20:45;;;;;;;0.90;0.70;;;29.80;33.60;;;;;;4951130;29;20040;-80
2023/08/06 12:23:15;;;;;;;1.85;0.80;;;29.90;33.40;;;;;;4967751;28;20114;-79
2023/08/06 12:25:41;;;;;;;0.70;0.70;;;30.00;34.10;;;;;;4952209;29;20031;-79
2023/08/06 12:37:25;;;;;;;1.90;1.00;;;30.10;32.40;;;;;;5965483;23;20057;-85
2023/08/06 12:39:50;;;;;;;1.13;0.80;;;30.10;33.10;;;;;;4934303;29;20036;-85
2023/08/06 12:42:16;;;;;;;1.03;0.83;;;30.20;33.20;;;;;;4918328;29;20204;-86
2023/08/06 12:44:42;;;;;;;0.73;0.60;;;30.40;33.50;;;;;;4934165;29;20031;-86
2023/08/06 12:47:08;;;;;;;1.23;0.83;;;30.40;33.50;;;;;;4935271;29;20036;-86
2023/08/06 12:49:34;;;;;;;2.67;0.60;;;30.30;33.50;;;;;;4934136;29;20306;-85
2023/08/06 12:52:00;;;;;;;1.17;0.70;;;30.40;33.60;;;;;;4934245;29;20307;-85
2023/08/06 12:54:27;;;;;;;0.90;0.65;;;30.50;32.00;;;;;;4934293;29;20059;-85
2023/08/06 12:56:53;;;;;;;3.42;0.82;;;30.60;32.30;;;;;;4918270;29;20054;-86
2023/08/06 12:59:19;;;;;;;2.45;0.70;;;30.60;31.90;;;;;;4933956;29;20471;-85